createdAt,value
2023-05-16T00:01:13.279Z,0
2023-05-16T00:06:14.777Z,0
2023-05-16T00:11:16.104Z,0
2023-05-16T00:16:17.438Z,0
2023-05-16T00:21:19.741Z,0.88715
2023-05-16T00:26:22.305Z,0
2023-05-16T00:31:23.882Z,0
2023-05-16T00:36:25.561Z,0
2023-05-16T00:41:27.169Z,0.88715
2023-05-16T00:46:28.761Z,0.88715
2023-05-16T00:51:30.339Z,0
2023-05-16T00:56:31.985Z,0
2023-05-16T01:01:33.973Z,0
2023-05-16T01:06:35.596Z,0
2023-05-16T01:11:37.606Z,0
2023-05-16T01:16:39.477Z,0
2023-05-16T01:21:41.162Z,0
2023-05-16T01:26:42.730Z,0
2023-05-16T01:31:44.988Z,0
2023-05-16T01:36:46.604Z,0
2023-05-16T01:41:48.293Z,0
2023-05-16T01:46:50.198Z,0
2023-05-16T01:51:51.911Z,0
2023-05-16T01:56:53.665Z,0.88715
2023-05-16T02:01:55.474Z,0
2023-05-16T02:06:57.038Z,0
2023-05-16T02:11:58.806Z,0
2023-05-16T02:17:00.844Z,0
2023-05-16T02:22:02.414Z,0
2023-05-16T02:27:04.137Z,0
2023-05-16T02:32:07.396Z,0
2023-05-16T02:37:10.228Z,0
2023-05-16T02:42:13.177Z,0
2023-05-16T02:47:14.839Z,0
2023-05-16T02:52:16.114Z,0
2023-05-16T02:57:17.479Z,0
2023-05-16T03:02:19.061Z,0
2023-05-16T03:07:20.340Z,0
2023-05-16T03:12:21.759Z,0
2023-05-16T03:17:23.216Z,0.88715
2023-05-16T03:22:24.515Z,0
2023-05-16T03:27:25.738Z,0
2023-05-16T03:32:27.649Z,0
2023-05-16T03:37:28.924Z,0
2023-05-16T03:42:30.490Z,0
2023-05-16T03:47:32.258Z,0
2023-05-16T03:52:34.429Z,0
2023-05-16T03:57:35.972Z,0
2023-05-16T04:02:37.744Z,0
2023-05-16T04:07:39.459Z,0.88715
2023-05-16T04:12:41.002Z,0.88715
2023-05-16T04:17:42.862Z,0.88715
2023-05-16T04:22:44.563Z,1.16185
2023-05-16T04:27:46.311Z,2.3237
2023-05-16T04:32:48.533Z,0.9481
2023-05-16T04:37:49.927Z,2.4888
2023-05-16T04:42:51.644Z,3.79245
2023-05-16T04:47:53.560Z,4.5628
2023-05-16T04:52:56.478Z,8.39155
2023-05-16T04:57:57.955Z,14.699
2023-05-16T05:02:59.311Z,24.54715
2023-05-16T05:08:00.676Z,27.4432
2023-05-16T05:13:02.124Z,31.9613
2023-05-16T05:18:04.109Z,31.05085
2023-05-16T05:23:05.978Z,43.02645
2023-05-16T05:28:07.901Z,49.9424
2023-05-16T05:33:09.792Z,60.65765
2023-05-16T05:38:11.514Z,66.36825
2023-05-16T05:43:12.782Z,92.2044
2023-05-16T05:48:14.190Z,95.2265
2023-05-16T05:53:15.561Z,90.53485
2023-05-16T05:58:16.860Z,84.26355
2023-05-16T06:03:19.022Z,79.89375
2023-05-16T06:08:20.491Z,74.10165
2023-05-16T06:13:21.815Z,76.92355
2023-05-16T06:18:23.264Z,105.08555
2023-05-16T06:23:24.542Z,115.59735
2023-05-16T06:28:25.795Z,107.8523
2023-05-16T06:33:28.230Z,120.24475
2023-05-16T06:38:29.582Z,124.818
2023-05-16T06:43:30.916Z,193.44315
2023-05-16T06:48:32.240Z,246.83495
2023-05-16T06:53:33.776Z,419.958
2023-05-16T06:58:35.105Z,521.5047
2023-05-16T07:03:36.782Z,633.7078
2023-05-16T07:08:38.507Z,658.8083
2023-05-16T07:13:40.091Z,652.42855
2023-05-16T07:18:41.711Z,622.1426
2023-05-16T07:23:44.129Z,707.01835
2023-05-16T07:28:45.689Z,690.1648
2023-05-16T07:33:48.231Z,693.0057
2023-05-16T07:38:49.611Z,746.1162
2023-05-16T07:43:51.310Z,770.3269
2023-05-16T07:48:53.056Z,811.7656
2023-05-16T07:53:54.781Z,818.87155
2023-05-16T07:58:56.755Z,817.3598
2023-05-16T08:03:58.555Z,588.2418
2023-05-16T08:09:00.392Z,662.44585
2023-05-16T08:14:01.941Z,844.65285
2023-05-16T08:19:03.808Z,611.844
2023-05-16T08:24:05.139Z,897.67205
2023-05-16T08:29:06.454Z,955.30435
2023-05-16T08:34:08.533Z,981.73215
2023-05-16T08:39:09.960Z,1002.42485
2023-05-16T08:44:11.258Z,1015.6121
2023-05-16T08:49:14.264Z,1037.61495
2023-05-16T08:54:15.488Z,1072.76705
2023-05-16T08:59:16.895Z,1087.2473
2023-05-16T09:04:18.372Z,650.61835
2023-05-16T09:09:19.982Z,1100.961
2023-05-16T09:14:21.256Z,1151.4892
2023-05-16T09:19:22.877Z,1145.5298
2023-05-16T09:24:24.166Z,576.16495
2023-05-16T09:29:25.537Z,1017.2962
2023-05-16T09:34:27.121Z,1180.88905
2023-05-16T09:39:28.384Z,1225.82255
2023-05-16T09:44:29.679Z,652.14725
2023-05-16T09:49:31.059Z,630.6616
2023-05-16T09:54:32.295Z,502.54065
2023-05-16T09:59:33.577Z,1291.54795
2023-05-16T10:04:34.989Z,1349.57185
2023-05-16T10:09:36.258Z,400.05825
2023-05-16T10:14:37.569Z,216.90815
2023-05-16T10:19:38.967Z,178.74785
2023-05-16T10:24:40.862Z,207.7941
2023-05-16T10:29:53.328Z,233.6704
2023-05-16T10:34:56.527Z,279.17255
2023-05-16T10:39:57.801Z,375.90455
2023-05-16T10:45:06.016Z,455.03965
2023-05-16T10:50:07.909Z,523.05815
2023-05-16T10:55:09.496Z,537.91335
2023-05-16T11:00:10.935Z,744.8686
2023-05-16T11:05:13.093Z,1353.1371
2023-05-16T11:10:14.448Z,510.8029
2023-05-16T11:15:15.829Z,525.06255
2023-05-16T11:20:17.291Z,546.80495
2023-05-16T11:25:18.678Z,1460.0616
2023-05-16T11:30:19.986Z,1728.74555
2023-05-16T11:35:21.773Z,1725.63865
2023-05-16T11:40:23.359Z,1726.37275
2023-05-16T11:45:24.909Z,1772.2744
2023-05-16T11:50:26.788Z,1728.2344
2023-05-16T11:55:41.375Z,1617.3702
2023-05-16T12:00:44.583Z,1851.66625
2023-05-16T12:05:46.507Z,1796.6524
2023-05-16T12:10:48.103Z,1720.2099
2023-05-16T12:15:49.457Z,1791.4878
2023-05-16T12:20:51.148Z,1821.0684
2023-05-16T12:25:52.917Z,1769.5781
2023-05-16T12:30:54.506Z,1792.8151
2023-05-16T12:35:56.183Z,1782.155
2023-05-16T12:40:58.374Z,1705.8798
2023-05-16T12:46:00.124Z,1642.8053
2023-05-16T12:51:01.893Z,1654.0892
2023-05-16T12:56:03.649Z,1642.52585
2023-05-16T13:01:05.512Z,1644.1479
2023-05-16T13:06:07.185Z,1645.3839
2023-05-16T13:11:08.919Z,1572.3148
2023-05-16T13:16:10.658Z,1525.9131
2023-05-16T13:21:12.352Z,1521.9845
2023-05-16T13:26:14.101Z,1424.0012
2023-05-16T13:31:15.512Z,634.3358
2023-05-16T13:36:16.956Z,1376.32735
2023-05-16T13:41:18.417Z,1248.18925
2023-05-16T13:46:19.905Z,1188.23325
2023-05-16T13:51:21.490Z,1159.11285
2023-05-16T13:56:22.942Z,473.66775
2023-05-16T14:01:24.375Z,711.14115
2023-05-16T14:06:25.916Z,460.90825
2023-05-16T14:11:29.269Z,650.01355
2023-05-16T14:16:31.103Z,308.9988
2023-05-16T14:21:32.490Z,384.513
2023-05-16T14:26:33.814Z,385.51125
2023-05-16T14:31:35.237Z,343.26665
2023-05-16T14:36:37.427Z,282.3884
2023-05-16T14:41:39.124Z,237.9415
2023-05-16T14:46:41.118Z,199.95035
2023-05-16T14:51:42.874Z,173.2278
2023-05-16T14:56:44.259Z,104.42375
2023-05-16T15:01:45.725Z,77.5679
2023-05-16T15:06:47.102Z,70.3042
2023-05-16T15:11:48.390Z,64.5121
2023-05-16T15:16:49.701Z,37.18105
2023-05-16T15:21:51.074Z,28.6602
2023-05-16T15:26:52.470Z,18.9775
2023-05-16T15:31:53.933Z,9.5534
2023-05-16T15:36:55.312Z,4.5628
2023-05-16T15:42:10.169Z,2.4888
2023-05-16T15:47:12.267Z,0.59255
2023-05-16T15:52:13.611Z,1.16185
2023-05-16T15:57:14.930Z,0.88715
2023-05-16T16:02:16.197Z,0.88715
2023-05-16T16:07:17.545Z,0
2023-05-16T16:12:21.482Z,0.88715
2023-05-16T16:17:22.866Z,0
2023-05-16T16:22:24.446Z,0
2023-05-16T16:27:26.302Z,0.88715
2023-05-16T16:32:27.928Z,0
2023-05-16T16:37:29.563Z,0
2023-05-16T16:42:31.601Z,0.88715
2023-05-16T16:47:33.214Z,0
2023-05-16T16:52:35.020Z,0.88715
2023-05-16T16:57:36.945Z,0.88715
2023-05-16T17:02:38.712Z,0
2023-05-16T17:07:40.184Z,0
2023-05-16T17:12:41.427Z,0
2023-05-16T17:17:43.108Z,0.88715
2023-05-16T17:22:44.769Z,0.88715
2023-05-16T17:27:46.060Z,0
2023-05-16T17:32:49.458Z,0
2023-05-16T17:37:51.247Z,0
2023-05-16T17:42:52.985Z,0
2023-05-16T17:47:54.652Z,0
2023-05-16T17:52:56.511Z,0.88715
2023-05-16T17:57:58.178Z,0
2023-05-16T18:03:00.048Z,0
2023-05-16T18:08:01.668Z,0.88715
2023-05-16T18:13:03.228Z,0.88715
2023-05-16T18:18:04.731Z,0.88715
2023-05-16T18:23:06.032Z,0.88715
2023-05-16T18:28:07.333Z,0
2023-05-16T18:33:09.185Z,0
2023-05-16T18:38:17.429Z,0
2023-05-16T18:43:30.162Z,0
2023-05-16T18:48:32.463Z,0
2023-05-16T18:53:35.689Z,0
2023-05-16T18:58:37.069Z,0
2023-05-16T19:03:38.448Z,0
2023-05-16T19:08:48.113Z,0
2023-05-16T19:13:50.100Z,0
2023-05-16T19:18:52.889Z,0
2023-05-16T19:29:04.838Z,0
2023-05-16T19:34:06.286Z,0
2023-05-16T19:39:07.586Z,0
2023-05-16T19:44:09.631Z,0
2023-05-16T19:49:11.061Z,0
2023-05-16T19:54:12.427Z,0
2023-05-16T19:59:13.685Z,0
2023-05-16T20:04:15.316Z,0
2023-05-16T20:09:18.892Z,0
2023-05-16T20:14:20.507Z,0
2023-05-16T20:19:21.903Z,0.88715
2023-05-16T20:24:23.586Z,0
2023-05-16T20:29:25.213Z,0
2023-05-16T20:34:26.915Z,0
2023-05-16T20:39:28.599Z,0
2023-05-16T20:44:30.448Z,0
2023-05-16T20:49:32.084Z,0.88715
2023-05-16T20:54:33.413Z,0
2023-05-16T20:59:35.163Z,0
2023-05-16T21:04:36.445Z,0
2023-05-16T21:09:37.801Z,0
2023-05-16T21:14:39.224Z,0.88715
2023-05-16T21:19:40.641Z,0
2023-05-16T21:24:41.946Z,0
2023-05-16T21:29:43.249Z,0
2023-05-16T21:34:44.528Z,0
2023-05-16T21:39:45.844Z,0
2023-05-16T21:44:47.804Z,0.88715
2023-05-16T21:49:49.251Z,0
2023-05-16T21:54:50.549Z,0.88715
2023-05-16T21:59:51.801Z,0
2023-05-16T22:04:53.487Z,0
2023-05-16T22:09:55.113Z,0.88715
2023-05-16T22:14:57.018Z,0
2023-05-16T22:19:58.978Z,0
2023-05-16T22:25:00.895Z,0.88715
2023-05-16T22:30:02.793Z,0
2023-05-16T22:35:04.350Z,0
2023-05-16T22:40:06.127Z,0
2023-05-16T22:45:08.198Z,0
2023-05-16T22:50:09.910Z,0
2023-05-16T22:55:11.465Z,0
2023-05-16T23:00:13.215Z,0
2023-05-16T23:05:14.770Z,0
2023-05-16T23:10:16.449Z,0
2023-05-16T23:15:17.759Z,0
2023-05-16T23:20:19.203Z,0
2023-05-16T23:25:20.510Z,0
2023-05-16T23:30:21.821Z,0
2023-05-16T23:35:23.120Z,0
2023-05-16T23:40:24.698Z,0.88715
2023-05-16T23:45:26.916Z,0
2023-05-16T23:50:28.717Z,0
2023-05-16T23:55:30.357Z,0.88715
